Time;durP1;ratioP1;P1;durP2;ratioP2;P2;SDS_P1;SDS_P2;PMS_P1;PMS_P2;Temp;Humidity;BMP_temperature;BMP_pressure;BME280_temperature;BME280_humidity;BME280_pressure;Samples;Min_cycle;Max_cycle;Signal;HPM_P1;HPM_P2
2021/11/20 00:00:43;;;;;;;3.25;2.72;;;8.40;99.10;;;;;;4995325;28;20178;-80
2021/11/20 00:03:10;;;;;;;5.82;2.63;;;8.40;99.10;;;;;;4994894;28;20175;-80
2021/11/20 00:05:47;;;;;;;4.57;1.70;;;8.30;99.10;;;;;;4994838;28;20177;-81
2021/11/20 00:08:13;;;;;;;3.58;2.67;;;8.30;99.10;;;;;;4995124;28;20214;-80
2021/11/20 00:10:41;;;;;;;7.95;2.83;;;8.30;99.10;;;;;;4995633;28;20171;-81
2021/11/20 00:13:08;;;;;;;1.98;1.88;;;8.30;99.10;;;;;;4995289;28;20174;-80
2021/11/20 00:15:37;;;;;;;8.65;2.55;;;8.40;99.10;;;;;;4995308;28;20206;-80
2021/11/20 00:18:03;;;;;;;3.50;2.15;;;8.40;99.10;;;;;;4995517;28;20201;-80
2021/11/20 00:20:32;;;;;;;3.25;3.05;;;8.40;99.10;;;;;;5012551;28;20216;-81
2021/11/20 00:22:59;;;;;;;3.95;3.10;;;8.50;99.10;;;;;;4995194;28;20174;-80
2021/11/20 00:25:42;;;;;;;7.13;2.55;;;8.50;99.10;;;;;;4994887;28;20177;-80
2021/11/20 00:28:08;;;;;;;7.18;2.90;;;8.50;99.10;;;;;;4994272;28;20263;-80
2021/11/20 00:30:54;;;;;;;2.70;2.58;;;8.40;99.10;;;;;;4994954;28;20203;-80
2021/11/20 00:33:22;;;;;;;5.20;1.80;;;8.40;99.10;;;;;;4994427;28;20178;-80
2021/11/20 00:35:51;;;;;;;2.95;1.65;;;8.40;99.10;;;;;;4994717;28;20174;-80
2021/11/20 00:38:17;;;;;;;3.33;1.40;;;8.40;99.10;;;;;;4995588;28;20194;-80
2021/11/20 00:40:50;;;;;;;4.47;2.45;;;8.50;99.10;;;;;;4998077;28;20210;-80
2021/11/20 00:43:17;;;;;;;11.05;2.33;;;8.50;99.10;;;;;;4998113;28;20625;-80
2021/11/20 00:45:44;;;;;;;5.95;3.13;;;8.50;99.10;;;;;;4997784;28;20247;-80
2021/11/20 00:48:11;;;;;;;8.75;3.42;;;8.50;99.10;;;;;;5015799;28;20277;-80
2021/11/20 00:50:40;;;;;;;2.97;2.80;;;8.50;99.10;;;;;;4997378;28;20169;-81
2021/11/20 00:53:06;;;;;;;7.55;2.80;;;8.50;99.10;;;;;;4997481;28;20245;-80
2021/11/20 00:55:33;;;;;;;2.65;1.88;;;8.50;99.10;;;;;;4997835;28;20174;-80
2021/11/20 00:58:00;;;;;;;3.42;1.92;;;8.40;99.10;;;;;;4997840;28;20209;-79
2021/11/20 01:00:31;;;;;;;5.68;2.47;;;8.40;99.10;;;;;;4998083;28;20658;-80
2021/11/20 01:02:57;;;;;;;5.82;2.28;;;8.50;99.10;;;;;;4997908;28;20646;-80
2021/11/20 01:05:23;;;;;;;6.22;3.33;;;8.50;99.10;;;;;;4998144;28;20170;-80
2021/11/20 01:07:50;;;;;;;4.57;3.95;;;8.40;99.10;;;;;;5015030;28;20190;-80
2021/11/20 01:10:21;;;;;;;7.32;2.28;;;8.40;99.10;;;;;;4997302;28;20223;-80
2021/11/20 01:12:47;;;;;;;2.65;2.47;;;8.30;99.10;;;;;;4997748;28;20188;-80
2021/11/20 01:15:19;;;;;;;13.40;3.73;;;8.30;99.10;;;;;;4997435;28;20279;-80
2021/11/20 01:17:46;;;;;;;4.57;2.17;;;8.30;99.10;;;;;;4997631;28;20175;-80
2021/11/20 01:20:12;;;;;;;9.60;3.30;;;8.30;99.10;;;;;;4997698;28;20174;-81
2021/11/20 01:22:38;;;;;;;3.42;1.55;;;8.30;99.10;;;;;;4997502;28;20197;-80
2021/11/20 01:25:05;;;;;;;9.63;2.85;;;8.30;99.10;;;;;;5014484;28;20163;-80
2021/11/20 01:27:31;;;;;;;3.85;2.05;;;8.30;99.10;;;;;;4997110;28;20204;-80
2021/11/20 01:29:57;;;;;;;4.73;1.93;;;8.30;99.10;;;;;;4997604;28;20203;-81
2021/11/20 01:32:23;;;;;;;3.40;3.20;;;8.30;99.10;;;;;;4996942;28;20594;-80
2021/11/20 01:34:49;;;;;;;11.23;3.00;;;8.30;99.10;;;;;;4997047;28;20459;-81
2021/11/20 01:37:15;;;;;;;2.80;1.80;;;8.30;99.10;;;;;;4997614;28;20421;-79
2021/11/20 01:39:43;;;;;;;2.65;2.45;;;8.30;99.10;;;;;;4996726;28;20430;-80
2021/11/20 01:42:21;;;;;;;5.90;2.65;;;8.30;99.10;;;;;;4997070;28;20175;-80
2021/11/20 01:44:58;;;;;;;16.02;5.30;;;8.30;99.10;;;;;;4997072;28;20263;-80
2021/11/20 01:47:30;;;;;;;7.57;2.90;;;8.20;99.10;;;;;;4997432;28;20662;-79
2021/11/20 01:50:10;;;;;;;8.35;2.88;;;8.30;99.10;;;;;;4995861;28;20565;-80
2021/11/20 01:52:44;;;;;;;3.58;2.55;;;8.30;99.10;;;;;;4997565;28;20178;-80
2021/11/20 01:55:19;;;;;;;6.20;3.13;;;8.20;99.10;;;;;;4997232;28;20167;-79
2021/11/20 01:57:59;;;;;;;4.22;3.03;;;8.30;99.10;;;;;;4996801;28;20195;-80
2021/11/20 02:00:33;;;;;;;2.50;1.25;;;8.30;99.10;;;;;;4996703;28;20216;-79
2021/11/20 02:03:27;;;;;;;4.00;2.25;;;8.30;99.10;;;;;;4997791;28;20755;-80
2021/11/20 02:06:02;;;;;;;4.75;3.28;;;8.30;99.10;;;;;;4996802;28;20221;-79
2021/11/20 02:08:27;;;;;;;6.43;3.47;;;8.30;99.10;;;;;;4996840;28;20217;-80
2021/11/20 02:11:02;;;;;;;9.43;3.77;;;8.30;99.10;;;;;;4996719;28;20175;-80
2021/11/20 02:13:31;;;;;;;3.88;3.13;;;8.30;99.10;;;;;;4996698;28;20162;-80
2021/11/20 02:16:06;;;;;;;6.07;2.85;;;8.30;99.10;;;;;;4996454;28;20181;-80
2021/11/20 02:18:35;;;;;;;2.63;2.10;;;8.30;99.10;;;;;;4996929;28;20232;-80
2021/11/20 02:21:20;;;;;;;3.42;2.28;;;8.20;99.10;;;;;;4997173;28;20175;-79
2021/11/20 02:23:45;;;;;;;3.80;2.03;;;8.20;99.10;;;;;;4996801;28;20190;-80
2021/11/20 02:26:11;;;;;;;5.33;3.23;;;8.20;99.10;;;;;;4996975;28;20178;-80
2021/11/20 02:28:37;;;;;;;7.70;3.80;;;8.20;99.10;;;;;;4996324;28;20210;-81
2021/11/20 02:31:05;;;;;;;12.80;3.25;;;8.20;99.10;;;;;;4996950;28;20542;-80
2021/11/20 02:33:34;;;;;;;7.70;3.65;;;8.20;99.10;;;;;;4996158;28;20171;-80
2021/11/20 02:36:03;;;;;;;3.70;1.95;;;8.20;99.10;;;;;;4999387;28;20174;-83
2021/11/20 02:38:35;;;;;;;4.15;2.83;;;8.30;99.10;;;;;;4998911;28;20201;-84
2021/11/20 02:41:02;;;;;;;5.35;3.05;;;8.20;99.10;;;;;;4999352;28;20167;-83
2021/11/20 02:43:33;;;;;;;1.80;1.45;;;8.20;99.10;;;;;;4998216;28;20174;-83
2021/11/20 02:45:59;;;;;;;6.97;2.72;;;8.20;99.10;;;;;;4998019;28;20196;-83
2021/11/20 02:48:25;;;;;;;2.25;1.60;;;8.20;99.10;;;;;;4998965;28;20780;-83
2021/11/20 02:50:55;;;;;;;3.83;2.33;;;8.20;99.10;;;;;;4998971;28;20209;-83
2021/11/20 02:53:31;;;;;;;7.43;2.50;;;8.20;99.10;;;;;;4998427;28;20171;-84
2021/11/20 02:55:57;;;;;;;6.13;3.35;;;8.20;99.10;;;;;;4998548;28;20566;-83
2021/11/20 02:58:24;;;;;;;4.40;1.60;;;8.30;99.10;;;;;;4998156;28;20284;-83
2021/11/20 03:00:58;;;;;;;7.60;3.08;;;8.30;99.10;;;;;;4996576;28;20171;-83
2021/11/20 03:03:25;;;;;;;6.13;2.35;;;8.30;99.10;;;;;;4996104;28;20163;-84
2021/11/20 03:05:50;;;;;;;6.38;2.38;;;8.30;99.10;;;;;;4995895;28;20171;-82
2021/11/20 03:08:16;;;;;;;2.97;1.83;;;8.30;99.10;;;;;;4995493;28;20549;-82
2021/11/20 03:10:44;;;;;;;3.72;3.00;;;8.30;99.10;;;;;;4996118;28;20410;-82
2021/11/20 03:13:10;;;;;;;1.85;1.67;;;8.20;99.10;;;;;;4995773;28;20350;-82
2021/11/20 03:15:36;;;;;;;2.15;1.30;;;8.30;99.10;;;;;;4995514;28;20170;-82
2021/11/20 03:18:02;;;;;;;3.00;2.20;;;8.20;99.10;;;;;;4995621;28;20211;-81
2021/11/20 03:20:28;;;;;;;5.20;3.10;;;8.20;99.10;;;;;;4995409;28;20213;-82
2021/11/20 03:23:01;;;;;;;6.57;3.23;;;8.20;99.10;;;;;;4996025;28;20449;-82
2021/11/20 03:25:26;;;;;;;10.85;3.35;;;8.20;99.10;;;;;;4995020;28;20515;-81
2021/11/20 03:27:52;;;;;;;6.70;3.47;;;8.20;99.10;;;;;;4995259;28;20293;-82
2021/11/20 03:30:19;;;;;;;6.60;2.67;;;8.30;99.10;;;;;;4995050;28;20410;-82
2021/11/20 03:32:46;;;;;;;5.50;2.50;;;8.30;99.10;;;;;;4994845;28;20452;-82
2021/11/20 03:35:13;;;;;;;3.83;1.83;;;8.40;99.10;;;;;;4995058;28;20179;-82
2021/11/20 03:37:39;;;;;;;3.90;2.08;;;8.40;99.10;;;;;;4994927;28;20197;-82
2021/11/20 03:40:09;;;;;;;2.00;1.65;;;8.40;99.10;;;;;;4995098;28;20192;-82
2021/11/20 03:42:34;;;;;;;2.33;1.25;;;8.40;99.10;;;;;;4994865;28;20675;-82
2021/11/20 03:45:00;;;;;;;1.57;1.07;;;8.40;99.10;;;;;;4994644;28;20170;-82
2021/11/20 03:47:26;;;;;;;5.53;3.75;;;8.40;99.10;;;;;;4994729;28;20457;-82
2021/11/20 03:49:52;;;;;;;7.97;2.40;;;8.30;99.10;;;;;;4995091;28;20222;-82
2021/11/20 03:52:19;;;;;;;6.43;3.00;;;8.40;99.10;;;;;;4996070;28;20465;-82
2021/11/20 03:54:46;;;;;;;5.07;2.33;;;8.40;99.10;;;;;;4994839;28;20425;-82
2021/11/20 03:57:13;;;;;;;6.03;2.15;;;8.40;99.10;;;;;;4994575;28;20175;-82
2021/11/20 03:59:38;;;;;;;2.35;1.80;;;8.40;99.10;;;;;;4994703;28;20254;-82
2021/11/20 04:02:05;;;;;;;5.67;3.17;;;8.40;99.10;;;;;;4994742;28;20174;-83
2021/11/20 04:04:32;;;;;;;9.27;3.60;;;8.40;99.10;;;;;;4994666;28;20429;-82
2021/11/20 04:06:58;;;;;;;6.13;2.17;;;8.30;99.10;;;;;;4994501;28;20189;-82
2021/11/20 04:09:25;;;;;;;4.40;2.43;;;8.20;99.10;;;;;;4994595;28;20581;-82
2021/11/20 04:11:51;;;;;;;7.47;2.38;;;8.20;99.10;;;;;;4995399;28;20422;-82
2021/11/20 04:14:19;;;;;;;5.55;2.22;;;8.20;99.10;;;;;;4994359;28;20559;-82
2021/11/20 04:16:45;;;;;;;2.08;1.50;;;8.20;99.10;;;;;;4995387;28;20642;-82
2021/11/20 04:19:11;;;;;;;1.90;1.70;;;8.20;99.10;;;;;;4994945;28;20201;-82
2021/11/20 04:21:39;;;;;;;14.45;3.67;;;8.20;99.10;;;;;;4995446;28;20166;-82
2021/11/20 04:24:06;;;;;;;5.63;3.35;;;8.20;99.10;;;;;;4994760;28;20262;-83
2021/11/20 04:26:32;;;;;;;4.78;2.15;;;8.20;99.10;;;;;;4995522;28;20171;-82
2021/11/20 04:28:58;;;;;;;3.95;2.78;;;8.10;99.10;;;;;;4994232;28;20217;-83
2021/11/20 04:31:25;;;;;;;13.93;5.60;;;8.10;99.10;;;;;;4995470;28;20193;-82
2021/11/20 04:33:52;;;;;;;2.53;1.85;;;8.20;99.10;;;;;;4994371;28;20179;-82
2021/11/20 04:36:20;;;;;;;4.72;2.45;;;8.10;99.10;;;;;;4994039;28;20675;-82
2021/11/20 04:38:46;;;;;;;2.50;1.15;;;8.20;99.10;;;;;;4994523;28;20206;-82
2021/11/20 04:41:13;;;;;;;3.78;2.03;;;8.20;99.10;;;;;;4993968;28;20182;-82
2021/11/20 04:43:43;;;;;;;7.38;3.08;;;8.10;99.10;;;;;;4994403;28;20178;-83
2021/11/20 04:46:10;;;;;;;2.17;2.03;;;8.10;99.10;;;;;;4993637;28;20257;-82
2021/11/20 04:49:04;;;;;;;5.25;2.05;;;8.10;99.10;;;;;;4993636;28;20258;-82
2021/11/20 04:51:32;;;;;;;6.20;2.05;;;8.10;99.10;;;;;;4993920;28;20178;-82
2021/11/20 04:53:58;;;;;;;3.72;2.08;;;8.10;99.10;;;;;;4994382;28;20175;-82
2021/11/20 04:56:26;;;;;;;3.80;1.48;;;8.10;99.10;;;;;;4994421;28;20166;-82
2021/11/20 04:58:52;;;;;;;4.90;1.40;;;8.20;99.10;;;;;;4993877;28;20598;-83
2021/11/20 05:01:19;;;;;;;7.85;1.98;;;8.20;99.10;;;;;;4994492;28;20174;-83
2021/11/20 05:03:46;;;;;;;4.88;2.22;;;8.30;99.10;;;;;;4994732;28;20181;-81
2021/11/20 05:06:13;;;;;;;7.82;6.28;;;8.30;99.10;;;;;;4993980;28;20175;-81
2021/11/20 05:08:38;;;;;;;5.07;2.42;;;8.20;99.10;;;;;;4994288;28;20242;-81
2021/11/20 05:11:07;;;;;;;3.27;2.37;;;8.30;99.10;;;;;;4994189;28;20182;-81
2021/11/20 05:13:33;;;;;;;4.28;2.22;;;8.20;99.10;;;;;;4994193;28;20409;-81
2021/11/20 05:15:59;;;;;;;7.13;3.22;;;8.20;99.10;;;;;;4994133;28;20699;-81
2021/11/20 05:18:26;;;;;;;11.75;3.78;;;8.10;99.10;;;;;;4994736;28;20194;-80
2021/11/20 05:20:59;;;;;;;9.00;2.55;;;8.10;99.10;;;;;;4993951;28;20181;-81
2021/11/20 05:23:25;;;;;;;6.13;2.25;;;8.20;99.10;;;;;;4994356;28;20208;-81
2021/11/20 05:25:51;;;;;;;5.75;2.88;;;8.10;99.10;;;;;;4997049;28;20187;-80
2021/11/20 05:28:17;;;;;;;4.70;3.60;;;8.10;99.10;;;;;;4996883;28;20214;-81
2021/11/20 05:30:47;;;;;;;2.03;1.88;;;8.10;99.10;;;;;;4997212;28;20417;-82
2021/11/20 05:33:25;;;;;;;1.85;1.45;;;8.10;99.10;;;;;;4997146;28;20204;-81
2021/11/20 05:35:51;;;;;;;8.10;3.67;;;8.10;99.10;;;;;;4996826;28;20288;-82
2021/11/20 05:38:17;;;;;;;14.68;3.42;;;8.20;99.10;;;;;;4996766;28;20690;-82
2021/11/20 05:40:43;;;;;;;2.88;2.10;;;8.10;99.10;;;;;;4996954;28;20564;-83
2021/11/20 05:43:13;;;;;;;5.00;3.70;;;8.10;99.10;;;;;;4996753;28;20231;-82
2021/11/20 05:45:57;;;;;;;1.85;1.05;;;8.20;99.10;;;;;;4996612;28;20218;-83
2021/11/20 05:48:23;;;;;;;3.85;1.17;;;8.20;99.10;;;;;;4996473;28;20574;-83
2021/11/20 05:50:50;;;;;;;5.90;2.97;;;8.20;99.10;;;;;;4997005;28;20171;-82
2021/11/20 05:53:21;;;;;;;2.95;1.90;;;8.20;99.10;;;;;;4996588;28;20175;-84
2021/11/20 05:55:49;;;;;;;3.05;2.85;;;8.20;99.10;;;;;;4996816;28;20582;-84
2021/11/20 05:58:16;;;;;;;10.00;3.05;;;8.10;99.10;;;;;;4997006;28;20201;-82
2021/11/20 06:00:46;;;;;;;5.10;2.58;;;8.10;99.10;;;;;;4997227;28;20174;-82
2021/11/20 06:03:16;;;;;;;2.25;1.48;;;8.10;99.10;;;;;;4996352;28;20166;-82
2021/11/20 06:05:43;;;;;;;3.05;1.95;;;8.10;99.10;;;;;;4996880;28;20175;-82
2021/11/20 06:08:09;;;;;;;5.95;1.70;;;8.10;99.10;;;;;;4996225;28;20689;-83
2021/11/20 06:10:37;;;;;;;7.10;1.90;;;8.10;99.10;;;;;;4996769;28;20171;-82
2021/11/20 06:13:08;;;;;;;7.00;2.00;;;8.00;99.10;;;;;;4996766;28;20273;-83
2021/11/20 06:15:34;;;;;;;8.50;3.63;;;8.00;99.10;;;;;;4997061;28;20275;-82
2021/11/20 06:18:00;;;;;;;4.75;2.17;;;8.10;99.10;;;;;;4996555;28;20662;-82
2021/11/20 06:20:26;;;;;;;4.22;2.45;;;8.00;99.10;;;;;;4996638;28;20287;-82
2021/11/20 06:22:52;;;;;;;6.28;2.50;;;8.00;99.10;;;;;;4996725;28;20235;-82
2021/11/20 06:25:18;;;;;;;7.07;3.20;;;8.00;99.10;;;;;;4996037;28;20175;-82
2021/11/20 06:27:44;;;;;;;14.50;3.03;;;8.00;99.10;;;;;;4996311;28;20517;-82
2021/11/20 06:30:14;;;;;;;9.77;3.40;;;8.00;99.10;;;;;;4996762;28;20183;-82
2021/11/20 06:32:41;;;;;;;8.98;3.53;;;8.00;99.10;;;;;;4996813;28;20167;-82
2021/11/20 06:35:11;;;;;;;1.88;1.60;;;8.00;99.10;;;;;;4996492;28;20281;-82
2021/11/20 06:37:41;;;;;;;5.35;1.85;;;8.00;99.10;;;;;;4995918;28;20532;-82
2021/11/20 06:40:16;;;;;;;4.35;2.85;;;8.10;99.10;;;;;;4996507;28;20224;-83
2021/11/20 06:42:43;;;;;;;4.95;1.88;;;8.10;99.10;;;;;;4996451;28;20266;-83
2021/11/20 06:45:11;;;;;;;2.85;2.58;;;8.10;99.10;;;;;;4996126;28;20558;-83
2021/11/20 06:47:37;;;;;;;5.32;2.78;;;8.10;99.10;;;;;;4996207;28;20202;-83
2021/11/20 06:50:05;;;;;;;2.25;1.20;;;8.10;99.10;;;;;;4997143;28;20234;-83
2021/11/20 06:52:31;;;;;;;7.65;2.65;;;8.10;99.10;;;;;;4996490;28;20696;-82
2021/11/20 06:54:57;;;;;;;4.83;2.93;;;8.10;99.10;;;;;;4996461;28;20170;-82
2021/11/20 06:58:09;;;;;;;6.53;2.00;;;8.10;99.10;;;;;;4995996;28;20434;-83
2021/11/20 07:00:28;;;;;;;3.85;1.95;;;8.10;99.10;;;;;;5016035;28;20200;-82
2021/11/20 07:03:07;;;;;;;7.03;5.93;;;8.20;99.10;;;;;;4995896;28;20170;-82
2021/11/20 07:05:36;;;;;;;4.05;2.40;;;8.20;99.10;;;;;;4995945;28;20641;-82
2021/11/20 07:08:03;;;;;;;6.18;2.45;;;8.20;99.10;;;;;;4995767;28;20211;-82
2021/11/20 07:10:31;;;;;;;4.22;1.42;;;8.30;99.10;;;;;;4996220;28;20185;-82
2021/11/20 07:12:58;;;;;;;5.10;1.77;;;8.20;99.10;;;;;;4995623;28;20635;-82
2021/11/20 07:15:25;;;;;;;3.97;3.00;;;8.20;99.10;;;;;;4995567;28;20175;-82
2021/11/20 07:17:51;;;;;;;9.80;3.15;;;8.30;99.10;;;;;;4995313;28;20239;-83
2021/11/20 07:20:19;;;;;;;4.40;1.52;;;8.20;99.10;;;;;;4995273;28;20178;-82
2021/11/20 07:22:45;;;;;;;12.15;2.92;;;8.20;99.10;;;;;;4995559;28;20171;-82
2021/11/20 07:25:11;;;;;;;5.72;3.05;;;8.20;99.10;;;;;;4994960;28;20182;-82
2021/11/20 07:27:38;;;;;;;3.58;3.25;;;8.20;99.10;;;;;;4995506;28;20203;-82
2021/11/20 07:30:06;;;;;;;5.82;1.40;;;8.20;99.10;;;;;;4995173;28;20245;-85
2021/11/20 07:32:32;;;;;;;5.15;3.03;;;8.30;99.10;;;;;;4995219;28;20166;-82
2021/11/20 07:34:58;;;;;;;6.63;2.33;;;8.30;99.10;;;;;;4994741;28;20201;-82
2021/11/20 07:37:24;;;;;;;5.10;2.87;;;8.30;99.10;;;;;;4994732;28;20642;-82
2021/11/20 07:39:50;;;;;;;2.00;1.92;;;8.30;99.10;;;;;;4994605;28;20489;-82
2021/11/20 07:42:16;;;;;;;10.50;4.00;;;8.40;99.10;;;;;;4994992;28;20182;-82
2021/11/20 07:44:42;;;;;;;9.27;2.88;;;8.30;99.10;;;;;;4994848;28;20424;-82
2021/11/20 07:47:09;;;;;;;4.10;3.23;;;8.40;99.10;;;;;;4995175;28;20183;-83
2021/11/20 07:49:35;;;;;;;8.35;3.97;;;8.30;99.10;;;;;;4994092;28;20449;-82
2021/11/20 07:52:01;;;;;;;7.00;2.83;;;8.40;99.10;;;;;;4994383;28;20223;-82
2021/11/20 07:54:27;;;;;;;2.47;2.27;;;8.40;99.10;;;;;;4994379;28;20174;-83
2021/11/20 07:56:52;;;;;;;4.70;2.37;;;8.40;99.10;;;;;;4994281;28;20506;-82
2021/11/20 07:59:20;;;;;;;5.40;3.33;;;8.40;99.10;;;;;;4994122;28;20797;-82
2021/11/20 08:01:46;;;;;;;4.68;3.13;;;8.40;99.10;;;;;;4994320;28;20402;-82
2021/11/20 08:04:14;;;;;;;11.93;3.00;;;8.40;99.10;;;;;;4993978;28;20173;-82
2021/11/20 08:06:41;;;;;;;7.05;4.45;;;8.40;99.10;;;;;;4994570;28;20426;-82
2021/11/20 08:09:09;;;;;;;22.75;2.50;;;8.50;99.10;;;;;;4994079;28;20626;-82
2021/11/20 08:11:38;;;;;;;4.55;2.30;;;8.50;99.10;;;;;;4994589;28;20197;-82
2021/11/20 08:14:05;;;;;;;6.15;2.20;;;8.60;99.10;;;;;;4993808;28;20546;-82
2021/11/20 08:16:31;;;;;;;6.18;3.85;;;8.60;99.10;;;;;;4994542;28;20167;-82
2021/11/20 08:18:58;;;;;;;7.35;3.38;;;8.60;99.10;;;;;;4994473;28;20206;-82
2021/11/20 08:21:25;;;;;;;6.25;2.28;;;8.60;99.10;;;;;;4995020;28;20546;-82
2021/11/20 08:23:51;;;;;;;7.72;4.10;;;8.60;99.00;;;;;;4993936;28;20182;-82
2021/11/20 08:26:18;;;;;;;6.15;2.83;;;8.60;99.10;;;;;;4994583;28;20643;-82
2021/11/20 08:28:44;;;;;;;6.18;3.63;;;8.60;99.10;;;;;;4993797;28;20217;-82
2021/11/20 08:31:10;;;;;;;2.33;2.03;;;8.60;99.10;;;;;;4994401;28;20194;-82
2021/11/20 08:33:37;;;;;;;17.00;3.58;;;8.60;99.10;;;;;;4994194;28;20174;-82
2021/11/20 08:36:10;;;;;;;10.98;4.05;;;8.50;99.10;;;;;;4994872;28;20199;-83
2021/11/20 08:38:37;;;;;;;4.68;3.08;;;8.60;99.10;;;;;;4995270;28;20263;-84
2021/11/20 08:41:03;;;;;;;20.60;2.67;;;8.60;99.10;;;;;;4995417;28;20174;-85
2021/11/20 08:43:30;;;;;;;8.88;3.45;;;8.60;99.10;;;;;;4995799;28;20227;-84
2021/11/20 08:45:59;;;;;;;6.82;2.17;;;8.60;99.10;;;;;;4995189;28;20715;-83
2021/11/20 08:48:25;;;;;;;7.97;3.90;;;8.70;99.10;;;;;;4995643;28;20203;-84
2021/11/20 08:50:57;;;;;;;7.32;3.90;;;8.70;99.10;;;;;;4998129;28;20166;-83
2021/11/20 08:53:23;;;;;;;11.13;3.17;;;8.70;98.90;;;;;;4997405;28;20231;-83
2021/11/20 08:55:49;;;;;;;7.63;5.03;;;8.70;99.10;;;;;;4996715;28;20715;-83
2021/11/20 08:58:15;;;;;;;17.40;3.20;;;8.70;99.10;;;;;;4996885;28;20194;-83
2021/11/20 09:01:06;;;;;;;2.90;2.70;;;8.80;99.10;;;;;;4999284;28;20198;-83
2021/11/20 09:03:41;;;;;;;6.60;3.25;;;8.80;99.10;;;;;;4999093;28;20185;-83
2021/11/20 09:06:14;;;;;;;1.85;1.75;;;8.80;99.10;;;;;;4999344;28;20185;-83
2021/11/20 09:08:48;;;;;;;2.17;1.73;;;8.90;99.10;;;;;;5000261;28;20218;-83
2021/11/20 09:11:26;;;;;;;3.25;1.85;;;9.00;98.60;;;;;;5000704;28;20769;-83
2021/11/20 09:14:01;;;;;;;3.85;2.10;;;9.10;98.80;;;;;;5004283;28;20261;-84
2021/11/20 09:16:27;;;;;;;9.00;3.25;;;9.10;98.50;;;;;;5000144;28;20223;-83
2021/11/20 09:18:57;;;;;;;9.13;5.03;;;9.10;98.30;;;;;;4999860;28;20228;-83
2021/11/20 09:21:24;;;;;;;4.47;4.20;;;9.20;98.40;;;;;;4999903;28;20175;-83
2021/11/20 09:23:51;;;;;;;7.80;2.92;;;9.30;97.60;;;;;;4999251;28;20214;-83
2021/11/20 09:26:18;;;;;;;6.25;4.25;;;9.30;98.00;;;;;;4999281;28;20235;-83
2021/11/20 09:28:45;;;;;;;7.10;4.90;;;9.30;97.80;;;;;;4998845;28;20217;-84
2021/11/20 09:31:11;;;;;;;6.18;3.42;;;9.40;97.80;;;;;;4999525;28;20171;-83
2021/11/20 09:33:37;;;;;;;4.15;2.30;;;9.40;97.60;;;;;;4999164;28;20637;-83
2021/11/20 09:36:05;;;;;;;7.60;4.32;;;9.50;97.10;;;;;;4998478;28;20171;-83
2021/11/20 09:38:31;;;;;;;8.70;3.13;;;9.50;96.90;;;;;;4998992;28;20205;-83
2021/11/20 09:41:04;;;;;;;5.63;2.78;;;9.50;96.80;;;;;;4998219;28;20227;-82
2021/11/20 09:43:38;;;;;;;2.97;2.13;;;9.60;97.10;;;;;;4997820;28;20635;-84
2021/11/20 09:46:09;;;;;;;5.25;3.45;;;9.50;96.70;;;;;;4997674;28;20266;-82
2021/11/20 09:48:41;;;;;;;4.65;2.15;;;9.50;96.70;;;;;;4997793;28;20210;-82
2021/11/20 09:51:16;;;;;;;4.40;4.03;;;9.60;96.80;;;;;;4997496;28;20167;-82
2021/11/20 09:53:42;;;;;;;6.30;3.58;;;9.60;96.40;;;;;;4997172;28;20162;-84
2021/11/20 09:56:12;;;;;;;17.05;5.90;;;9.70;96.50;;;;;;4997407;28;20179;-82
2021/11/20 09:58:42;;;;;;;8.82;4.25;;;9.70;96.10;;;;;;4997637;28;20229;-81
2021/11/20 10:01:27;;;;;;;3.00;1.50;;;9.70;96.10;;;;;;4998429;28;20167;-84
2021/11/20 10:04:02;;;;;;;6.53;3.22;;;9.80;95.80;;;;;;4998816;28;20657;-82
2021/11/20 10:06:35;;;;;;;4.28;1.98;;;9.80;95.70;;;;;;4998844;28;20174;-82
2021/11/20 10:09:32;;;;;;;7.20;3.28;;;9.80;95.80;;;;;;4998886;28;20237;-82
2021/11/20 10:11:58;;;;;;;3.78;2.80;;;9.90;95.60;;;;;;4997369;28;20220;-82
2021/11/20 10:14:54;;;;;;;8.63;3.95;;;10.00;94.80;;;;;;4998449;28;20283;-83
2021/11/20 10:17:32;;;;;;;4.28;2.50;;;10.00;95.30;;;;;;4998329;28;20174;-82
2021/11/20 10:20:21;;;;;;;4.38;2.30;;;10.10;95.30;;;;;;4998357;28;20258;-82
2021/11/20 10:22:54;;;;;;;6.05;2.70;;;10.10;95.10;;;;;;4998326;28;20685;-82
2021/11/20 10:25:57;;;;;;;6.50;2.72;;;10.10;94.80;;;;;;4998405;28;20166;-82
2021/11/20 10:28:38;;;;;;;5.53;3.00;;;10.10;94.80;;;;;;4998050;28;20695;-82
2021/11/20 10:31:24;;;;;;;2.30;2.10;;;10.20;94.50;;;;;;4998540;28;20183;-82
2021/11/20 10:34:28;;;;;;;5.10;2.55;;;10.20;94.60;;;;;;4987045;28;20654;-82
2021/11/20 10:37:03;;;;;;;2.33;2.15;;;10.20;94.30;;;;;;4978274;28;20179;-83
2021/11/20 10:39:46;;;;;;;2.53;1.50;;;10.20;94.00;;;;;;4978789;28;20252;-82
2021/11/20 10:42:30;;;;;;;3.03;1.35;;;10.30;94.80;;;;;;4990374;28;20630;-84
2021/11/20 10:45:04;;;;;;;8.88;2.60;;;10.30;94.00;;;;;;4998985;28;20163;-84
2021/11/20 10:47:41;;;;;;;13.07;2.55;;;10.30;93.70;;;;;;4998790;28;20222;-83
2021/11/20 10:50:32;;;;;;;2.28;1.77;;;10.20;93.50;;;;;;4992548;28;20205;-83
2021/11/20 10:53:24;;;;;;;1.30;0.80;;;10.20;94.20;;;;;;4979317;28;20176;-82
2021/11/20 10:56:21;;;;;;;2.53;1.45;;;10.20;94.10;;;;;;4979990;28;20243;-82
2021/11/20 10:58:49;;;;;;;2.13;1.40;;;10.10;93.60;;;;;;4980391;28;20199;-82
2021/11/20 11:01:24;;;;;;;2.80;1.70;;;10.10;93.80;;;;;;4980849;28;20183;-82
2021/11/20 11:04:16;;;;;;;4.43;2.50;;;10.20;94.20;;;;;;4980714;28;20167;-82
2021/11/20 11:06:56;;;;;;;3.25;2.88;;;10.30;93.30;;;;;;4974016;28;20190;-82
2021/11/20 11:09:47;;;;;;;1.17;1.10;;;10.30;92.90;;;;;;4999155;28;20198;-82
2021/11/20 11:12:38;;;;;;;1.30;0.60;;;10.20;92.40;;;;;;4998112;28;20159;-82
2021/11/20 11:15:12;;;;;;;3.28;1.70;;;10.20;92.30;;;;;;4998567;28;20161;-82
2021/11/20 11:18:03;;;;;;;4.50;1.80;;;10.10;92.70;;;;;;4997999;28;20181;-82
2021/11/20 11:21:06;;;;;;;2.80;1.95;;;10.20;93.40;;;;;;4998173;28;20210;-82
2021/11/20 11:24:19;;;;;;;4.53;1.65;;;10.20;92.40;;;;;;5013819;28;20259;-85
2021/11/20 11:26:54;;;;;;;2.75;1.25;;;10.30;92.70;;;;;;4930759;28;20193;-82
2021/11/20 11:29:38;;;;;;;3.17;2.00;;;10.40;91.90;;;;;;4997768;28;20213;-82
2021/11/20 11:32:05;;;;;;;2.90;2.33;;;10.50;91.80;;;;;;4998182;28;20177;-82
2021/11/20 11:34:39;;;;;;;0.60;0.50;;;10.60;91.70;;;;;;4997941;28;20171;-82
2021/11/20 11:37:19;;;;;;;0.60;0.60;;;10.60;91.10;;;;;;4998581;28;20185;-82
2021/11/20 11:39:48;;;;;;;3.45;1.67;;;10.60;90.70;;;;;;4999079;28;20190;-81
2021/11/20 11:42:20;;;;;;;1.15;1.08;;;10.60;90.70;;;;;;4999045;28;20249;-82
2021/11/20 11:45:23;;;;;;;3.05;1.77;;;10.70;90.50;;;;;;4999102;28;20266;-82
2021/11/20 11:48:11;;;;;;;1.35;1.25;;;10.70;90.50;;;;;;4999172;28;20204;-82
2021/11/20 11:50:55;;;;;;;1.85;1.83;;;10.70;90.40;;;;;;4997607;28;20166;-82
2021/11/20 11:53:27;;;;;;;4.38;2.65;;;10.60;90.50;;;;;;4997793;28;20240;-82
2021/11/20 11:55:55;;;;;;;2.45;2.25;;;10.70;90.20;;;;;;4998401;28;20212;-83
2021/11/20 11:58:30;;;;;;;1.67;0.70;;;10.70;90.70;;;;;;4998229;28;20194;-83
2021/11/20 12:00:56;;;;;;;2.22;1.10;;;10.80;90.40;;;;;;4997118;28;20184;-83
2021/11/20 12:03:29;;;;;;;1.50;1.40;;;10.70;90.30;;;;;;4997023;28;20178;-83
2021/11/20 12:06:15;;;;;;;2.58;2.05;;;10.70;90.20;;;;;;4996211;28;20655;-82
2021/11/20 12:08:47;;;;;;;3.00;1.50;;;10.50;90.60;;;;;;4997223;28;20209;-82
2021/11/20 12:11:13;;;;;;;3.08;2.22;;;10.60;90.80;;;;;;4997441;28;20258;-82
2021/11/20 12:14:10;;;;;;;3.87;2.03;;;10.50;90.30;;;;;;4997501;28;20599;-83
2021/11/20 12:16:47;;;;;;;1.25;1.08;;;10.50;90.60;;;;;;4993720;28;20224;-82
2021/11/20 12:19:27;;;;;;;1.23;1.15;;;10.50;90.10;;;;;;5001014;28;20194;-80
2021/11/20 12:22:16;;;;;;;1.42;1.33;;;10.40;90.10;;;;;;5001194;28;20642;-81
2021/11/20 12:24:51;;;;;;;1.98;1.88;;;10.50;90.50;;;;;;4984011;28;20657;-83
2021/11/20 12:27:34;;;;;;;0.80;0.70;;;10.50;90.10;;;;;;5000322;28;20649;-81
2021/11/20 12:30:33;;;;;;;3.42;1.35;;;10.50;90.90;;;;;;4999159;28;20194;-83
2021/11/20 12:33:23;;;;;;;1.27;1.20;;;10.50;90.60;;;;;;4998854;28;20530;-83
2021/11/20 12:35:49;;;;;;;2.70;1.67;;;10.50;90.50;;;;;;5002131;28;20593;-83
2021/11/20 12:38:39;;;;;;;2.43;1.37;;;10.60;90.70;;;;;;5001063;28;20194;-83
2021/11/20 12:41:40;;;;;;;3.72;2.15;;;10.60;90.80;;;;;;5018648;28;20167;-81
2021/11/20 12:44:19;;;;;;;2.15;1.40;;;10.60;90.10;;;;;;5002092;28;20273;-82
2021/11/20 12:47:02;;;;;;;1.60;1.50;;;10.50;90.60;;;;;;5002389;28;20189;-82
2021/11/20 12:49:34;;;;;;;5.78;1.67;;;10.50;90.60;;;;;;5002210;28;20194;-81
2021/11/20 12:52:19;;;;;;;6.72;1.30;;;10.60;90.60;;;;;;5001920;28;20159;-81
2021/11/20 12:55:30;;;;;;;5.65;2.95;;;10.60;90.40;;;;;;4985194;28;20213;-82
2021/11/20 12:58:16;;;;;;;1.83;1.70;;;10.60;90.60;;;;;;5002420;28;20167;-81
2021/11/20 13:00:46;;;;;;;6.93;2.60;;;10.70;90.30;;;;;;5003453;28;20167;-82
2021/11/20 13:03:12;;;;;;;1.90;1.27;;;10.70;89.90;;;;;;5003140;28;20171;-82
2021/11/20 13:05:41;;;;;;;8.93;3.50;;;10.70;89.20;;;;;;5002015;28;20197;-81
2021/11/20 13:08:22;;;;;;;1.60;1.50;;;10.70;89.60;;;;;;5000758;28;20245;-81
2021/11/20 13:11:08;;;;;;;1.35;1.10;;;10.70;89.50;;;;;;5002163;28;20214;-81
2021/11/20 13:14:06;;;;;;;2.53;1.50;;;10.80;89.50;;;;;;5001137;28;20208;-81
2021/11/20 13:16:50;;;;;;;2.95;1.63;;;10.80;89.80;;;;;;5001133;28;20176;-81